sensor_id;sensor_type;location;lat;lon;timestamp;pressure;altitude;pressure_sealevel;temperature;humidity
5062;BME280;2351;50.812;12.872;2022-08-01T00:00:04;97720.16;;;18.31;76.05
5062;BME280;2351;50.812;12.872;2022-08-01T00:02:37;97729.22;;;18.30;75.92
5062;BME280;2351;50.812;12.872;2022-08-01T00:05:09;97718.88;;;18.27;75.88
5062;BME280;2351;50.812;12.872;2022-08-01T00:07:42;97719.59;;;18.21;76.11
5062;BME280;2351;50.812;12.872;2022-08-01T00:10:16;97715.00;;;18.15;76.26
5062;BME280;2351;50.812;12.872;2022-08-01T00:12:48;97714.09;;;18.08;76.48
5062;BME280;2351;50.812;12.872;2022-08-01T00:15:20;97710.31;;;18.02;76.40
5062;BME280;2351;50.812;12.872;2022-08-01T00:17:51;97711.00;;;17.96;76.69
5062;BME280;2351;50.812;12.872;2022-08-01T00:20:23;97703.91;;;17.88;76.85
5062;BME280;2351;50.812;12.872;2022-08-01T00:22:54;97713.31;;;17.84;77.10
5062;BME280;2351;50.812;12.872;2022-08-01T00:25:27;97705.00;;;17.79;77.07
5062;BME280;2351;50.812;12.872;2022-08-01T00:27:59;97707.44;;;17.73;77.38
5062;BME280;2351;50.812;12.872;2022-08-01T00:30:30;97704.09;;;17.71;77.42
5062;BME280;2351;50.812;12.872;2022-08-01T00:33:02;97700.59;;;17.71;77.36
5062;BME280;2351;50.812;12.872;2022-08-01T00:35:34;97704.47;;;17.68;77.50
5062;BME280;2351;50.812;12.872;2022-08-01T00:38:05;97704.00;;;17.65;77.63
5062;BME280;2351;50.812;12.872;2022-08-01T00:40:39;97703.53;;;17.61;77.58
5062;BME280;2351;50.812;12.872;2022-08-01T00:43:11;97702.22;;;17.57;77.84
5062;BME280;2351;50.812;12.872;2022-08-01T00:45:42;97700.75;;;17.54;77.90
5062;BME280;2351;50.812;12.872;2022-08-01T00:48:14;97699.47;;;17.50;77.99
5062;BME280;2351;50.812;12.872;2022-08-01T00:50:45;97703.34;;;17.48;78.16
5062;BME280;2351;50.812;12.872;2022-08-01T00:53:17;97704.72;;;17.43;78.18
5062;BME280;2351;50.812;12.872;2022-08-01T00:55:50;97703.25;;;17.41;78.40
5062;BME280;2351;50.812;12.872;2022-08-01T00:58:22;97705.06;;;17.40;78.55
5062;BME280;2351;50.812;12.872;2022-08-01T01:00:54;97698.06;;;17.39;78.67
5062;BME280;2351;50.812;12.872;2022-08-01T01:03:26;97693.72;;;17.38;78.84
5062;BME280;2351;50.812;12.872;2022-08-01T01:06:07;97694.56;;;17.39;79.03
5062;BME280;2351;50.812;12.872;2022-08-01T01:08:46;97702.59;;;17.39;79.22
5062;BME280;2351;50.812;12.872;2022-08-01T01:11:28;97711.63;;;17.38;79.43
5062;BME280;2351;50.812;12.872;2022-08-01T01:14:05;97694.94;;;17.36;79.32
5062;BME280;2351;50.812;12.872;2022-08-01T01:16:42;97690.41;;;17.36;79.61
5062;BME280;2351;50.812;12.872;2022-08-01T01:19:22;97690.03;;;17.39;79.65
5062;BME280;2351;50.812;12.872;2022-08-01T01:22:18;97684.69;;;17.39;79.77
5062;BME280;2351;50.812;12.872;2022-08-01T01:25:10;97689.88;;;17.41;79.85
5062;BME280;2351;50.812;12.872;2022-08-01T01:27:51;97687.34;;;17.39;79.75
5062;BME280;2351;50.812;12.872;2022-08-01T01:30:28;97686.72;;;17.37;79.97
5062;BME280;2351;50.812;12.872;2022-08-01T01:33:03;97687.47;;;17.31;80.00
5062;BME280;2351;50.812;12.872;2022-08-01T01:35:41;97686.97;;;17.27;80.19
5062;BME280;2351;50.812;12.872;2022-08-01T01:38:17;97688.63;;;17.28;80.41
5062;BME280;2351;50.812;12.872;2022-08-01T01:40:52;97695.84;;;17.28;80.34
5062;BME280;2351;50.812;12.872;2022-08-01T01:43:24;97690.66;;;17.26;80.60
5062;BME280;2351;50.812;12.872;2022-08-01T01:45:59;97683.84;;;17.24;80.57
5062;BME280;2351;50.812;12.872;2022-08-01T01:48:32;97683.19;;;17.22;80.66
5062;BME280;2351;50.812;12.872;2022-08-01T01:51:05;97682.81;;;17.25;80.79
5062;BME280;2351;50.812;12.872;2022-08-01T01:53:37;97686.16;;;17.27;80.95
5062;BME280;2351;50.812;12.872;2022-08-01T01:56:09;97678.78;;;17.29;81.05
5062;BME280;2351;50.812;12.872;2022-08-01T01:58:44;97685.78;;;17.30;81.18
5062;BME280;2351;50.812;12.872;2022-08-01T02:01:19;97682.09;;;17.31;81.22
5062;BME280;2351;50.812;12.872;2022-08-01T02:03:52;97681.09;;;17.32;81.09
5062;BME280;2351;50.812;12.872;2022-08-01T02:06:25;97690.75;;;17.33;81.15
5062;BME280;2351;50.812;12.872;2022-08-01T02:08:59;97687.47;;;17.31;80.99
5062;BME280;2351;50.812;12.872;2022-08-01T02:11:32;97692.81;;;17.31;81.12
5062;BME280;2351;50.812;12.872;2022-08-01T02:14:05;97691.97;;;17.30;81.08
5062;BME280;2351;50.812;12.872;2022-08-01T02:16:41;97696.50;;;17.30;81.09
5062;BME280;2351;50.812;12.872;2022-08-01T02:19:14;97698.16;;;17.31;81.17
5062;BME280;2351;50.812;12.872;2022-08-01T02:21:51;97700.63;;;17.33;81.05
5062;BME280;2351;50.812;12.872;2022-08-01T02:24:28;97702.28;;;17.34;81.10
5062;BME280;2351;50.812;12.872;2022-08-01T02:27:07;97697.97;;;17.33;81.04
5062;BME280;2351;50.812;12.872;2022-08-01T02:29:41;97701.66;;;17.31;80.97
5062;BME280;2351;50.812;12.872;2022-08-01T02:32:20;97705.53;;;17.29;81.01
5062;BME280;2351;50.812;12.872;2022-08-01T02:34:56;97709.38;;;17.26;81.16
5062;BME280;2351;50.812;12.872;2022-08-01T02:37:29;97706.53;;;17.28;81.16
5062;BME280;2351;50.812;12.872;2022-08-01T02:40:04;97711.88;;;17.28;81.29
5062;BME280;2351;50.812;12.872;2022-08-01T02:42:38;97707.53;;;17.27;81.32
5062;BME280;2351;50.812;12.872;2022-08-01T02:45:13;97707.34;;;17.28;81.50
5062;BME280;2351;50.812;12.872;2022-08-01T02:47:48;97703.50;;;17.31;81.35
5062;BME280;2351;50.812;12.872;2022-08-01T02:50:22;97712.53;;;17.30;81.24
5062;BME280;2351;50.812;12.872;2022-08-01T02:52:57;97709.66;;;17.31;81.29
5062;BME280;2351;50.812;12.872;2022-08-01T02:55:30;97712.16;;;17.33;81.12
5062;BME280;2351;50.812;12.872;2022-08-01T02:58:04;97703.97;;;17.35;81.25
5062;BME280;2351;50.812;12.872;2022-08-01T03:00:37;97710.13;;;17.35;80.99
5062;BME280;2351;50.812;12.872;2022-08-01T03:03:12;97708.09;;;17.37;81.09
5062;BME280;2351;50.812;12.872;2022-08-01T03:05:45;97709.59;;;17.40;81.38
5062;BME280;2351;50.812;12.872;2022-08-01T03:08:19;97715.78;;;17.40;81.00
5062;BME280;2351;50.812;12.872;2022-08-01T03:10:53;97718.09;;;17.43;81.11
5062;BME280;2351;50.812;12.872;2022-08-01T03:13:25;97723.06;;;17.46;80.78
5062;BME280;2351;50.812;12.872;2022-08-01T03:15:59;97722.88;;;17.48;80.90
5062;BME280;2351;50.812;12.872;2022-08-01T03:18:35;97724.38;;;17.51;80.80
5062;BME280;2351;50.812;12.872;2022-08-01T03:21:08;97723.38;;;17.52;80.69
5062;BME280;2351;50.812;12.872;2022-08-01T03:23:40;97724.84;;;17.54;80.46
5062;BME280;2351;50.812;12.872;2022-08-01T03:26:13;97732.22;;;17.52;80.58
5062;BME280;2351;50.812;12.872;2022-08-01T03:28:46;97731.19;;;17.53;80.36
5062;BME280;2351;50.812;12.872;2022-08-01T03:31:19;97726.50;;;17.55;80.32
5062;BME280;2351;50.812;12.872;2022-08-01T03:33:52;97724.66;;;17.56;80.20
5062;BME280;2351;50.812;12.872;2022-08-01T03:36:25;97720.94;;;17.57;80.14
5062;BME280;2351;50.812;12.872;2022-08-01T03:39:01;97729.81;;;17.57;80.29
5062;BME280;2351;50.812;12.872;2022-08-01T03:41:38;97728.63;;;17.60;80.11
5062;BME280;2351;50.812;12.872;2022-08-01T03:44:14;97727.59;;;17.61;80.33
5062;BME280;2351;50.812;12.872;2022-08-01T03:46:48;97722.91;;;17.63;80.27
5062;BME280;2351;50.812;12.872;2022-08-01T03:49:24;97739.63;;;17.65;80.12
5062;BME280;2351;50.812;12.872;2022-08-01T03:51:58;97729.56;;;17.67;80.27
5062;BME280;2351;50.812;12.872;2022-08-01T03:54:34;97735.38;;;17.71;80.26
5062;BME280;2351;50.812;12.872;2022-08-01T03:57:08;97737.88;;;17.72;80.27
5062;BME280;2351;50.812;12.872;2022-08-01T03:59:42;97736.66;;;17.75;80.24
5062;BME280;2351;50.812;12.872;2022-08-01T04:02:14;97748.69;;;17.79;80.29
5062;BME280;2351;50.812;12.872;2022-08-01T04:04:48;97743.97;;;17.81;80.42
5062;BME280;2351;50.812;12.872;2022-08-01T04:07:25;97749.78;;;17.85;80.27
5062;BME280;2351;50.812;12.872;2022-08-01T04:09:57;97751.28;;;17.87;80.29
5062;BME280;2351;50.812;12.872;2022-08-01T04:12:28;97749.22;;;17.89;80.33
5062;BME280;2351;50.812;12.872;2022-08-01T04:15:01;97748.03;;;17.92;80.31
5062;BME280;2351;50.812;12.872;2022-08-01T04:17:33;97757.75;;;17.93;80.34
5062;BME280;2351;50.812;12.872;2022-08-01T04:20:06;97762.72;;;17.96;80.30
5062;BME280;2351;50.812;12.872;2022-08-01T04:22:38;97757.38;;;17.96;80.40
5062;BME280;2351;50.812;12.872;2022-08-01T04:25:14;97760.88;;;17.97;80.34
5062;BME280;2351;50.812;12.872;2022-08-01T04:27:49;97762.53;;;17.98;80.26
5062;BME280;2351;50.812;12.872;2022-08-01T04:30:25;97764.88;;;18.01;80.35
5062;BME280;2351;50.812;12.872;2022-08-01T04:32:59;97772.91;;;18.01;80.23
5062;BME280;2351;50.812;12.872;2022-08-01T04:35:33;97764.88;;;18.01;80.47
5062;BME280;2351;50.812;12.872;2022-08-01T04:38:08;97764.69;;;18.02;80.21
5062;BME280;2351;50.812;12.872;2022-08-01T04:40:41;97768.84;;;18.05;80.28
5062;BME280;2351;50.812;12.872;2022-08-01T04:43:14;97774.84;;;18.07;80.29
5062;BME280;2351;50.812;12.872;2022-08-01T04:45:46;97778.19;;;18.09;80.26
5062;BME280;2351;50.812;12.872;2022-08-01T04:48:19;97779.19;;;18.08;80.39
5062;BME280;2351;50.812;12.872;2022-08-01T04:50:53;97782.03;;;18.06;80.11
5062;BME280;2351;50.812;12.872;2022-08-01T04:53:25;97772.91;;;18.01;80.03
5062;BME280;2351;50.812;12.872;2022-08-01T04:55:58;97777.78;;;17.97;80.05
5062;BME280;2351;50.812;12.872;2022-08-01T04:58:29;97776.28;;;17.95;80.11
5062;BME280;2351;50.812;12.872;2022-08-01T05:01:01;97776.66;;;17.91;80.26
5062;BME280;2351;50.812;12.872;2022-08-01T05:03:32;97778.66;;;17.89;80.60
5062;BME280;2351;50.812;12.872;2022-08-01T05:06:05;97785.22;;;17.87;80.65
5062;BME280;2351;50.812;12.872;2022-08-01T05:08:37;97774.22;;;17.82;80.87
5062;BME280;2351;50.812;12.872;2022-08-01T05:11:09;97778.28;;;17.77;81.01
5062;BME280;2351;50.812;12.872;2022-08-01T05:13:41;97781.16;;;17.76;81.35
5062;BME280;2351;50.812;12.872;2022-08-01T05:16:13;97790.19;;;17.75;81.63
5062;BME280;2351;50.812;12.872;2022-08-01T05:18:44;97784.19;;;17.73;81.86
5062;BME280;2351;50.812;12.872;2022-08-01T05:21:17;97783.38;;;17.72;81.96
5062;BME280;2351;50.812;12.872;2022-08-01T05:23:49;97793.44;;;17.70;82.14
5062;BME280;2351;50.812;12.872;2022-08-01T05:26:21;97780.88;;;17.71;82.75
5062;BME280;2351;50.812;12.872;2022-08-01T05:28:53;97783.53;;;17.71;82.64
5062;BME280;2351;50.812;12.872;2022-08-01T05:31:24;97782.53;;;17.72;82.73
5062;BME280;2351;50.812;12.872;2022-08-01T05:33:56;97784.03;;;17.74;83.03
5062;BME280;2351;50.812;12.872;2022-08-01T05:36:29;97789.00;;;17.77;83.45
5062;BME280;2351;50.812;12.872;2022-08-01T05:39:00;97783.28;;;17.81;83.53
5062;BME280;2351;50.812;12.872;2022-08-01T05:41:32;97787.25;;;17.85;83.69
5062;BME280;2351;50.812;12.872;2022-08-01T05:44:04;97788.75;;;17.87;83.99
5062;BME280;2351;50.812;12.872;2022-08-01T05:46:36;97787.19;;;17.93;84.06
5062;BME280;2351;50.812;12.872;2022-08-01T05:49:08;97785.16;;;17.95;84.37
5062;BME280;2351;50.812;12.872;2022-08-01T05:51:41;97781.09;;;17.99;84.81
5062;BME280;2351;50.812;12.872;2022-08-01T05:54:12;97788.97;;;18.01;84.77
5062;BME280;2351;50.812;12.872;2022-08-01T05:56:44;97786.09;;;18.02;84.71
5062;BME280;2351;50.812;12.872;2022-08-01T05:59:16;97784.06;;;18.04;84.85
5062;BME280;2351;50.812;12.872;2022-08-01T06:01:47;97782.41;;;18.03;85.00
5062;BME280;2351;50.812;12.872;2022-08-01T06:04:19;97782.41;;;18.03;85.30
5062;BME280;2351;50.812;12.872;2022-08-01T06:06:52;97782.41;;;18.03;85.28
5062;BME280;2351;50.812;12.872;2022-08-01T06:09:23;97789.44;;;18.04;85.02
5062;BME280;2351;50.812;12.872;2022-08-01T06:11:55;97784.72;;;18.06;85.38
5062;BME280;2351;50.812;12.872;2022-08-01T06:14:26;97784.72;;;18.06;85.43
5062;BME280;2351;50.812;12.872;2022-08-01T06:16:58;97794.63;;;18.06;85.50
5062;BME280;2351;50.812;12.872;2022-08-01T06:19:29;97797.28;;;18.06;85.53
5062;BME280;2351;50.812;12.872;2022-08-01T06:22:02;97796.28;;;18.07;85.54
5062;BME280;2351;50.812;12.872;2022-08-01T06:24:34;97798.97;;;18.07;85.75
5062;BME280;2351;50.812;12.872;2022-08-01T06:27:05;97798.97;;;18.07;85.85
5062;BME280;2351;50.812;12.872;2022-08-01T06:29:37;97799.78;;;18.08;85.78
5062;BME280;2351;50.812;12.872;2022-08-01T06:32:09;97797.38;;;18.13;85.94
5062;BME280;2351;50.812;12.872;2022-08-01T06:34:40;97802.38;;;18.16;86.16
5062;BME280;2351;50.812;12.872;2022-08-01T06:37:13;97797.28;;;18.21;86.38
5062;BME280;2351;50.812;12.872;2022-08-01T06:39:46;97800.06;;;18.28;86.55
5062;BME280;2351;50.812;12.872;2022-08-01T06:42:17;97799.31;;;18.34;86.67
5062;BME280;2351;50.812;12.872;2022-08-01T06:44:49;97802.91;;;18.41;86.78
5062;BME280;2351;50.812;12.872;2022-08-01T06:47:20;97801.53;;;18.45;86.67
5062;BME280;2351;50.812;12.872;2022-08-01T06:49:52;97809.84;;;18.50;86.70
5062;BME280;2351;50.812;12.872;2022-08-01T06:52:25;97802.06;;;18.56;86.47
5062;BME280;2351;50.812;12.872;2022-08-01T06:54:57;97806.22;;;18.58;86.30
5062;BME280;2351;50.812;12.872;2022-08-01T06:57:28;97813.91;;;18.61;86.42
5062;BME280;2351;50.812;12.872;2022-08-01T07:00:03;97814.13;;;18.66;86.49
5062;BME280;2351;50.812;12.872;2022-08-01T07:02:37;97810.28;;;18.69;86.57
5062;BME280;2351;50.812;12.872;2022-08-01T07:05:09;97815.44;;;18.71;86.55
5062;BME280;2351;50.812;12.872;2022-08-01T07:07:42;97817.94;;;18.72;86.61
5062;BME280;2351;50.812;12.872;2022-08-01T07:10:13;97819.41;;;18.75;86.71
5062;BME280;2351;50.812;12.872;2022-08-01T07:12:45;97814.50;;;18.78;86.68
5062;BME280;2351;50.812;12.872;2022-08-01T07:15:16;97814.31;;;18.80;86.75
5062;BME280;2351;50.812;12.872;2022-08-01T07:17:50;97811.44;;;18.81;86.99
5062;BME280;2351;50.812;12.872;2022-08-01T07:20:23;97814.19;;;18.88;86.85
5062;BME280;2351;50.812;12.872;2022-08-01T07:22:56;97809.31;;;18.92;86.81
5062;BME280;2351;50.812;12.872;2022-08-01T07:25:27;97805.78;;;18.91;86.67
5062;BME280;2351;50.812;12.872;2022-08-01T07:27:59;97814.03;;;18.90;86.65
5062;BME280;2351;50.812;12.872;2022-08-01T07:30:30;97809.84;;;18.87;86.48
5062;BME280;2351;50.812;12.872;2022-08-01T07:33:02;97816.63;;;18.83;86.86
5062;BME280;2351;50.812;12.872;2022-08-01T07:35:34;97818.38;;;18.76;86.78
5062;BME280;2351;50.812;12.872;2022-08-01T07:38:09;97817.84;;;18.65;87.53
5062;BME280;2351;50.812;12.872;2022-08-01T07:40:41;97828.03;;;18.55;87.70
5062;BME280;2351;50.812;12.872;2022-08-01T07:43:12;97826.66;;;18.44;87.95
5062;BME280;2351;50.812;12.872;2022-08-01T07:45:44;97831.94;;;18.38;88.10
5062;BME280;2351;50.812;12.872;2022-08-01T07:48:16;97833.09;;;18.35;88.27
5062;BME280;2351;50.812;12.872;2022-08-01T07:50:49;97831.28;;;18.35;88.73
5062;BME280;2351;50.812;12.872;2022-08-01T07:53:22;97832.56;;;18.40;90.04
5062;BME280;2351;50.812;12.872;2022-08-01T07:55:54;97830.81;;;18.47;90.77
5062;BME280;2351;50.812;12.872;2022-08-01T07:58:25;97836.16;;;18.47;90.69
5062;BME280;2351;50.812;12.872;2022-08-01T08:00:57;97836.06;;;18.55;91.80
5062;BME280;2351;50.812;12.872;2022-08-01T08:03:29;97840.03;;;18.59;93.06
5062;BME280;2351;50.812;12.872;2022-08-01T08:06:00;97840.50;;;18.63;94.07
5062;BME280;2351;50.812;12.872;2022-08-01T08:08:34;97830.22;;;18.66;94.60
5062;BME280;2351;50.812;12.872;2022-08-01T08:11:06;97835.50;;;18.75;94.90
5062;BME280;2351;50.812;12.872;2022-08-01T08:13:37;97837.31;;;18.89;95.51
5062;BME280;2351;50.812;12.872;2022-08-01T08:16:09;97838.53;;;19.02;96.50
5062;BME280;2351;50.812;12.872;2022-08-01T08:18:41;97838.53;;;19.02;95.18
5062;BME280;2351;50.812;12.872;2022-08-01T08:21:12;97838.03;;;18.98;95.77
5062;BME280;2351;50.812;12.872;2022-08-01T08:23:45;97835.84;;;19.02;95.65
5062;BME280;2351;50.812;12.872;2022-08-01T08:26:34;97831.56;;;19.07;96.48
5062;BME280;2351;50.812;12.872;2022-08-01T08:29:07;97832.53;;;19.21;96.25
5062;BME280;2351;50.812;12.872;2022-08-01T08:31:39;97836.38;;;19.34;97.09
5062;BME280;2351;50.812;12.872;2022-08-01T08:34:11;97839.53;;;19.37;96.73
5062;BME280;2351;50.812;12.872;2022-08-01T08:36:43;97842.38;;;19.36;96.45
5062;BME280;2351;50.812;12.872;2022-08-01T08:39:16;97836.25;;;19.42;96.47
5062;BME280;2351;50.812;12.872;2022-08-01T08:41:48;97847.88;;;19.49;96.52
5062;BME280;2351;50.812;12.872;2022-08-01T08:44:20;97840.72;;;19.56;95.38
5062;BME280;2351;50.812;12.872;2022-08-01T08:46:52;97847.09;;;19.77;95.55
5062;BME280;2351;50.812;12.872;2022-08-01T08:49:27;97847.88;;;19.93;94.90
5062;BME280;2351;50.812;12.872;2022-08-01T08:52:00;97849.00;;;20.05;94.18
5062;BME280;2351;50.812;12.872;2022-08-01T08:54:35;97849.75;;;19.99;93.19
5062;BME280;2351;50.812;12.872;2022-08-01T08:57:08;97852.28;;;20.00;92.80
5062;BME280;2351;50.812;12.872;2022-08-01T08:59:43;97850.84;;;20.05;92.39
5062;BME280;2351;50.812;12.872;2022-08-01T09:02:14;97853.09;;;20.01;91.89
5062;BME280;2351;50.812;12.872;2022-08-01T09:04:47;97848.19;;;20.05;91.43
5062;BME280;2351;50.812;12.872;2022-08-01T09:07:19;97848.84;;;20.13;91.83
5062;BME280;2351;50.812;12.872;2022-08-01T09:09:52;97852.41;;;20.21;91.52
5062;BME280;2351;50.812;12.872;2022-08-01T09:12:23;97854.94;;;20.29;90.94
5062;BME280;2351;50.812;12.872;2022-08-01T09:14:55;97856.22;;;20.33;90.69
5062;BME280;2351;50.812;12.872;2022-08-01T09:17:26;97858.00;;;20.26;88.10
5062;BME280;2351;50.812;12.872;2022-08-01T09:19:58;97863.22;;;20.27;87.97
5062;BME280;2351;50.812;12.872;2022-08-01T09:22:33;97855.78;;;20.29;85.91
5062;BME280;2351;50.812;12.872;2022-08-01T09:25:08;97852.91;;;20.38;86.48
5062;BME280;2351;50.812;12.872;2022-08-01T09:27:40;97856.19;;;20.26;83.78
5062;BME280;2351;50.812;12.872;2022-08-01T09:30:13;97862.97;;;20.22;82.57
5062;BME280;2351;50.812;12.872;2022-08-01T09:32:55;97856.91;;;20.13;81.63
5062;BME280;2351;50.812;12.872;2022-08-01T09:35:30;97857.44;;;20.02;81.68
5062;BME280;2351;50.812;12.872;2022-08-01T09:38:15;97866.47;;;19.94;82.12
5062;BME280;2351;50.812;12.872;2022-08-01T09:40:51;97868.34;;;19.94;82.39
5062;BME280;2351;50.812;12.872;2022-08-01T09:43:24;97875.38;;;19.95;82.87
5062;BME280;2351;50.812;12.872;2022-08-01T09:45:56;97867.31;;;19.95;83.48
5062;BME280;2351;50.812;12.872;2022-08-01T09:48:28;97862.50;;;19.90;83.68
5062;BME280;2351;50.812;12.872;2022-08-01T09:51:01;97878.81;;;19.89;84.56
5062;BME280;2351;50.812;12.872;2022-08-01T09:53:44;97871.25;;;19.99;85.46
5062;BME280;2351;50.812;12.872;2022-08-01T09:56:18;97870.78;;;20.17;86.60
5062;BME280;2351;50.812;12.872;2022-08-01T09:58:54;97880.66;;;20.38;87.29
5062;BME280;2351;50.812;12.872;2022-08-01T10:01:27;97873.31;;;20.60;88.02
5062;BME280;2351;50.812;12.872;2022-08-01T10:04:07;97865.34;;;20.74;86.67
5062;BME280;2351;50.812;12.872;2022-08-01T10:06:40;97865.25;;;20.96;87.72
5062;BME280;2351;50.812;12.872;2022-08-01T10:09:14;97862.81;;;21.14;85.02
5062;BME280;2351;50.812;12.872;2022-08-01T10:11:47;97847.75;;;21.27;84.16
5062;BME280;2351;50.812;12.872;2022-08-01T10:14:19;97852.50;;;21.31;82.34
5062;BME280;2351;50.812;12.872;2022-08-01T10:16:51;97860.41;;;21.40;80.35
5062;BME280;2351;50.812;12.872;2022-08-01T10:19:25;97855.41;;;21.43;79.20
5062;BME280;2351;50.812;12.872;2022-08-01T10:21:58;97854.00;;;21.54;78.40
5062;BME280;2351;50.812;12.872;2022-08-01T10:24:30;97840.75;;;21.52;76.94
5062;BME280;2351;50.812;12.872;2022-08-01T10:27:04;97855.50;;;21.63;76.86
5062;BME280;2351;50.812;12.872;2022-08-01T10:29:40;97855.50;;;21.77;75.28
5062;BME280;2351;50.812;12.872;2022-08-01T10:32:12;97860.03;;;21.96;74.86
5062;BME280;2351;50.812;12.872;2022-08-01T10:34:45;97860.03;;;22.23;74.31
5062;BME280;2351;50.812;12.872;2022-08-01T10:37:17;97843.41;;;22.40;73.38
5062;BME280;2351;50.812;12.872;2022-08-01T10:39:50;97843.44;;;22.47;71.43
5062;BME280;2351;50.812;12.872;2022-08-01T10:42:23;97845.50;;;22.51;69.11
5062;BME280;2351;50.812;12.872;2022-08-01T10:44:55;97852.50;;;22.66;69.54
5062;BME280;2351;50.812;12.872;2022-08-01T10:47:37;97840.88;;;22.72;68.55
5062;BME280;2351;50.812;12.872;2022-08-01T10:50:15;97845.78;;;22.89;68.86
5062;BME280;2351;50.812;12.872;2022-08-01T10:53:12;97837.59;;;23.09;67.35
5062;BME280;2351;50.812;12.872;2022-08-01T10:55:49;97844.00;;;23.14;66.42
5062;BME280;2351;50.812;12.872;2022-08-01T10:58:24;97836.09;;;23.20;65.81
5062;BME280;2351;50.812;12.872;2022-08-01T11:01:15;97842.75;;;23.24;65.91
5062;BME280;2351;50.812;12.872;2022-08-01T11:04:03;97835.09;;;23.07;64.80
5062;BME280;2351;50.812;12.872;2022-08-01T11:06:51;97850.94;;;22.97;64.87
5062;BME280;2351;50.812;12.872;2022-08-01T11:09:30;97847.28;;;22.71;64.28
5062;BME280;2351;50.812;12.872;2022-08-01T11:12:05;97845.06;;;22.54;65.01
5062;BME280;2351;50.812;12.872;2022-08-01T11:18:03;97844.41;;;23.11;66.25
5062;BME280;2351;50.812;12.872;2022-08-01T11:20:56;97847.19;;;22.98;63.77
5062;BME280;2351;50.812;12.872;2022-08-01T11:23:29;97845.34;;;22.92;64.98
5062;BME280;2351;50.812;12.872;2022-08-01T11:29:15;97838.34;;;23.29;63.39
5062;BME280;2351;50.812;12.872;2022-08-01T11:31:47;97844.19;;;23.52;63.65
5062;BME280;2351;50.812;12.872;2022-08-01T11:34:52;97829.09;;;23.76;63.78
5062;BME280;2351;50.812;12.872;2022-08-01T11:37:25;97834.66;;;24.06;63.19
5062;BME280;2351;50.812;12.872;2022-08-01T11:40:17;97838.75;;;24.16;60.22
5062;BME280;2351;50.812;12.872;2022-08-01T11:42:50;97837.75;;;24.29;58.52
5062;BME280;2351;50.812;12.872;2022-08-01T11:45:48;97833.97;;;24.36;57.14
5062;BME280;2351;50.812;12.872;2022-08-01T11:48:21;97833.81;;;24.50;56.95
5062;BME280;2351;50.812;12.872;2022-08-01T11:50:55;97827.94;;;24.53;57.95
5062;BME280;2351;50.812;12.872;2022-08-01T11:53:27;97837.31;;;24.50;57.58
5062;BME280;2351;50.812;12.872;2022-08-01T11:55:59;97828.84;;;24.28;56.37
5062;BME280;2351;50.812;12.872;2022-08-01T11:58:31;97831.72;;;24.08;56.99
5062;BME280;2351;50.812;12.872;2022-08-01T12:01:03;97831.81;;;23.95;57.40
5062;BME280;2351;50.812;12.872;2022-08-01T12:03:35;97832.38;;;23.78;57.71
5062;BME280;2351;50.812;12.872;2022-08-01T12:06:08;97847.44;;;23.67;58.02
5062;BME280;2351;50.812;12.872;2022-08-01T12:08:40;97844.81;;;23.54;58.57
5062;BME280;2351;50.812;12.872;2022-08-01T12:11:12;97843.06;;;23.66;59.81
5062;BME280;2351;50.812;12.872;2022-08-01T12:13:44;97842.59;;;23.76;59.57
5062;BME280;2351;50.812;12.872;2022-08-01T12:16:16;97845.34;;;23.69;58.65
5062;BME280;2351;50.812;12.872;2022-08-01T12:18:48;97843.63;;;23.50;59.19
5062;BME280;2351;50.812;12.872;2022-08-01T12:21:21;97838.84;;;23.45;59.08
5062;BME280;2351;50.812;12.872;2022-08-01T12:24:00;97843.03;;;23.41;59.12
5062;BME280;2351;50.812;12.872;2022-08-01T12:26:39;97850.09;;;23.42;59.58
5062;BME280;2351;50.812;12.872;2022-08-01T12:29:30;97846.34;;;23.75;60.98
5062;BME280;2351;50.812;12.872;2022-08-01T12:32:02;97846.22;;;23.88;59.84
5062;BME280;2351;50.812;12.872;2022-08-01T12:34:34;97840.66;;;23.83;58.86
5062;BME280;2351;50.812;12.872;2022-08-01T12:37:07;97842.97;;;23.80;60.29
5062;BME280;2351;50.812;12.872;2022-08-01T12:39:39;97842.41;;;23.71;59.03
5062;BME280;2351;50.812;12.872;2022-08-01T12:42:11;97842.28;;;23.84;58.95
5062;BME280;2351;50.812;12.872;2022-08-01T12:44:46;97849.97;;;23.87;58.96
5062;BME280;2351;50.812;12.872;2022-08-01T12:47:19;97847.06;;;23.89;58.74
5062;BME280;2351;50.812;12.872;2022-08-01T12:49:52;97842.69;;;23.88;58.92
5062;BME280;2351;50.812;12.872;2022-08-01T12:52:25;97845.47;;;24.06;58.82
5062;BME280;2351;50.812;12.872;2022-08-01T12:55:07;97843.22;;;24.03;57.31
5062;BME280;2351;50.812;12.872;2022-08-01T12:57:42;97842.97;;;23.80;56.99
5062;BME280;2351;50.812;12.872;2022-08-01T13:00:21;97845.78;;;23.66;57.92
5062;BME280;2351;50.812;12.872;2022-08-01T13:03:01;97846.66;;;23.60;58.37
5062;BME280;2351;50.812;12.872;2022-08-01T13:05:44;97846.88;;;23.20;58.40
5062;BME280;2351;50.812;12.872;2022-08-01T13:08:19;97852.06;;;23.28;58.91
5062;BME280;2351;50.812;12.872;2022-08-01T13:11:00;97844.44;;;23.50;59.66
5062;BME280;2351;50.812;12.872;2022-08-01T13:13:38;97845.00;;;23.59;58.73
5062;BME280;2351;50.812;12.872;2022-08-01T13:16:10;97859.00;;;23.74;58.72
5062;BME280;2351;50.812;12.872;2022-08-01T13:18:48;97856.47;;;23.80;58.37
5062;BME280;2351;50.812;12.872;2022-08-01T13:21:21;97844.94;;;23.66;57.78
5062;BME280;2351;50.812;12.872;2022-08-01T13:24:03;97852.72;;;23.81;59.17
5062;BME280;2351;50.812;12.872;2022-08-01T13:26:40;97851.47;;;23.83;58.58
5062;BME280;2351;50.812;12.872;2022-08-01T13:29:14;97850.47;;;23.77;58.95
5062;BME280;2351;50.812;12.872;2022-08-01T13:31:46;97853.41;;;23.76;57.72
5062;BME280;2351;50.812;12.872;2022-08-01T13:34:18;97850.50;;;23.96;59.06
5062;BME280;2351;50.812;12.872;2022-08-01T13:36:49;97840.78;;;24.39;59.17
5062;BME280;2351;50.812;12.872;2022-08-01T13:39:22;97842.72;;;24.76;56.75
5062;BME280;2351;50.812;12.872;2022-08-01T13:42:14;97847.97;;;24.71;54.69
5062;BME280;2351;50.812;12.872;2022-08-01T13:44:46;97850.13;;;24.62;55.53
5062;BME280;2351;50.812;12.872;2022-08-01T13:47:17;97847.50;;;24.55;55.24
5062;BME280;2351;50.812;12.872;2022-08-01T13:49:49;97843.88;;;24.43;55.63
5062;BME280;2351;50.812;12.872;2022-08-01T13:52:20;97842.53;;;24.33;55.59